sensor_id;sensor_type;location;lat;lon;timestamp;temperature;humidity
3548;DHT22;1788;49.400;11.092;2023-08-30T00:01:46;16.20;71.50
3548;DHT22;1788;49.400;11.092;2023-08-30T00:04:13;16.20;71.40
3548;DHT22;1788;49.400;11.092;2023-08-30T00:06:39;16.20;72.10
3548;DHT22;1788;49.400;11.092;2023-08-30T00:09:06;16.20;71.40
3548;DHT22;1788;49.400;11.092;2023-08-30T00:11:33;16.20;71.50
3548;DHT22;1788;49.400;11.092;2023-08-30T00:16:26;16.20;71.50
3548;DHT22;1788;49.400;11.092;2023-08-30T00:18:53;16.20;71.50
3548;DHT22;1788;49.400;11.092;2023-08-30T00:21:20;16.10;71.40
3548;DHT22;1788;49.400;11.092;2023-08-30T00:23:46;16.10;71.40
3548;DHT22;1788;49.400;11.092;2023-08-30T00:26:13;16.20;71.50
3548;DHT22;1788;49.400;11.092;2023-08-30T00:28:40;16.10;71.40
3548;DHT22;1788;49.400;11.092;2023-08-30T00:31:06;16.10;71.40
3548;DHT22;1788;49.400;11.092;2023-08-30T00:33:34;16.10;71.40
3548;DHT22;1788;49.400;11.092;2023-08-30T00:36:00;16.10;71.40
3548;DHT22;1788;49.400;11.092;2023-08-30T00:38:28;16.10;71.40
3548;DHT22;1788;49.400;11.092;2023-08-30T00:40:54;16.00;71.20
3548;DHT22;1788;49.400;11.092;2023-08-30T00:43:22;16.00;72.00
3548;DHT22;1788;49.400;11.092;2023-08-30T00:45:48;16.00;71.20
3548;DHT22;1788;49.400;11.092;2023-08-30T00:48:15;16.00;71.20
3548;DHT22;1788;49.400;11.092;2023-08-30T00:50:42;16.00;71.20
3548;DHT22;1788;49.400;11.092;2023-08-30T00:53:09;16.00;71.10
3548;DHT22;1788;49.400;11.092;2023-08-30T00:55:35;15.90;71.10
3548;DHT22;1788;49.400;11.092;2023-08-30T00:58:02;15.90;71.10
3548;DHT22;1788;49.400;11.092;2023-08-30T01:00:29;15.80;71.00
3548;DHT22;1788;49.400;11.092;2023-08-30T01:02:56;15.80;71.00
3548;DHT22;1788;49.400;11.092;2023-08-30T01:05:23;15.80;71.00
3548;DHT22;1788;49.400;11.092;2023-08-30T01:07:50;15.80;71.00
3548;DHT22;1788;49.400;11.092;2023-08-30T01:10:16;15.70;70.90
3548;DHT22;1788;49.400;11.092;2023-08-30T01:12:45;15.70;71.20
3548;DHT22;1788;49.400;11.092;2023-08-30T01:17:38;15.50;71.30
3548;DHT22;1788;49.400;11.092;2023-08-30T01:20:04;15.50;71.30
3548;DHT22;1788;49.400;11.092;2023-08-30T01:25:00;15.50;71.30
3548;DHT22;1788;49.400;11.092;2023-08-30T01:27:24;15.50;71.30
3548;DHT22;1788;49.400;11.092;2023-08-30T01:29:50;15.50;71.20
3548;DHT22;1788;49.400;11.092;2023-08-30T01:32:17;15.50;71.20
3548;DHT22;1788;49.400;11.092;2023-08-30T01:34:43;15.50;71.10
3548;DHT22;1788;49.400;11.092;2023-08-30T01:37:10;15.50;71.10
3548;DHT22;1788;49.400;11.092;2023-08-30T01:39:37;15.50;71.10
3548;DHT22;1788;49.400;11.092;2023-08-30T01:42:04;15.50;71.00
3548;DHT22;1788;49.400;11.092;2023-08-30T01:44:31;15.50;71.00
3548;DHT22;1788;49.400;11.092;2023-08-30T01:46:57;15.50;70.40
3548;DHT22;1788;49.400;11.092;2023-08-30T01:49:24;15.50;71.10
3548;DHT22;1788;49.400;11.092;2023-08-30T01:51:51;15.50;71.00
3548;DHT22;1788;49.400;11.092;2023-08-30T01:54:18;15.50;71.10
3548;DHT22;1788;49.400;11.092;2023-08-30T01:56:44;15.50;71.10
3548;DHT22;1788;49.400;11.092;2023-08-30T01:59:10;15.50;71.10
3548;DHT22;1788;49.400;11.092;2023-08-30T02:01:37;15.50;71.10
3548;DHT22;1788;49.400;11.092;2023-08-30T02:04:04;15.50;71.10
3548;DHT22;1788;49.400;11.092;2023-08-30T02:11:26;15.60;71.30
3548;DHT22;1788;49.400;11.092;2023-08-30T02:13:50;15.60;71.40
3548;DHT22;1788;49.400;11.092;2023-08-30T02:16:17;15.60;71.50
3548;DHT22;1788;49.400;11.092;2023-08-30T02:18:43;15.60;71.50
3548;DHT22;1788;49.400;11.092;2023-08-30T02:21:10;15.60;71.60
3548;DHT22;1788;49.400;11.092;2023-08-30T02:23:36;15.60;71.50
3548;DHT22;1788;49.400;11.092;2023-08-30T02:26:03;15.60;71.60
3548;DHT22;1788;49.400;11.092;2023-08-30T02:28:30;15.70;71.60
3548;DHT22;1788;49.400;11.092;2023-08-30T02:30:57;15.70;71.60
3548;DHT22;1788;49.400;11.092;2023-08-30T02:33:24;15.70;71.50
3548;DHT22;1788;49.400;11.092;2023-08-30T02:35:51;15.70;71.50
3548;DHT22;1788;49.400;11.092;2023-08-30T02:38:18;15.70;71.50
3548;DHT22;1788;49.400;11.092;2023-08-30T02:40:44;15.70;71.40
3548;DHT22;1788;49.400;11.092;2023-08-30T02:43:11;15.70;71.50
3548;DHT22;1788;49.400;11.092;2023-08-30T02:45:38;15.70;71.50
3548;DHT22;1788;49.400;11.092;2023-08-30T02:48:04;15.80;71.60
3548;DHT22;1788;49.400;11.092;2023-08-30T02:50:32;15.80;71.60
3548;DHT22;1788;49.400;11.092;2023-08-30T02:52:58;15.70;71.50
3548;DHT22;1788;49.400;11.092;2023-08-30T02:55:25;15.80;71.60
3548;DHT22;1788;49.400;11.092;2023-08-30T02:57:52;15.80;71.50
3548;DHT22;1788;49.400;11.092;2023-08-30T03:00:19;15.80;71.60
3548;DHT22;1788;49.400;11.092;2023-08-30T03:02:45;15.80;71.60
3548;DHT22;1788;49.400;11.092;2023-08-30T03:05:12;15.80;71.60
3548;DHT22;1788;49.400;11.092;2023-08-30T03:07:39;15.80;71.60
3548;DHT22;1788;49.400;11.092;2023-08-30T03:10:06;15.80;71.60
3548;DHT22;1788;49.400;11.092;2023-08-30T03:12:33;15.80;71.70
3548;DHT22;1788;49.400;11.092;2023-08-30T03:15:00;15.80;71.70
3548;DHT22;1788;49.400;11.092;2023-08-30T03:17:27;15.80;71.70
3548;DHT22;1788;49.400;11.092;2023-08-30T03:19:54;15.80;71.70
3548;DHT22;1788;49.400;11.092;2023-08-30T03:22:21;15.80;71.80
3548;DHT22;1788;49.400;11.092;2023-08-30T03:24:48;15.80;71.70
3548;DHT22;1788;49.400;11.092;2023-08-30T03:27:16;15.80;71.90
3548;DHT22;1788;49.400;11.092;2023-08-30T03:29:42;15.80;71.70
3548;DHT22;1788;49.400;11.092;2023-08-30T03:32:09;15.80;72.40
3548;DHT22;1788;49.400;11.092;2023-08-30T03:34:36;15.80;71.70
3548;DHT22;1788;49.400;11.092;2023-08-30T03:37:02;15.80;71.70
3548;DHT22;1788;49.400;11.092;2023-08-30T03:39:29;15.90;71.90
3548;DHT22;1788;49.400;11.092;2023-08-30T03:41:56;15.90;71.90
3548;DHT22;1788;49.400;11.092;2023-08-30T03:44:22;15.90;71.80
3548;DHT22;1788;49.400;11.092;2023-08-30T03:46:50;15.90;71.90
3548;DHT22;1788;49.400;11.092;2023-08-30T03:49:16;15.80;71.70
3548;DHT22;1788;49.400;11.092;2023-08-30T03:51:44;15.90;72.60
3548;DHT22;1788;49.400;11.092;2023-08-30T03:54:10;15.80;71.70
3548;DHT22;1788;49.400;11.092;2023-08-30T03:56:37;15.90;71.90
3548;DHT22;1788;49.400;11.092;2023-08-30T03:59:03;15.90;71.90
3548;DHT22;1788;49.400;11.092;2023-08-30T04:01:32;15.90;71.90
3548;DHT22;1788;49.400;11.092;2023-08-30T04:03:59;15.90;71.90
3548;DHT22;1788;49.400;11.092;2023-08-30T04:06:25;15.80;71.70
3548;DHT22;1788;49.400;11.092;2023-08-30T04:08:53;15.80;71.70
3548;DHT22;1788;49.400;11.092;2023-08-30T04:11:19;15.80;71.70
3548;DHT22;1788;49.400;11.092;2023-08-30T04:13:47;15.80;71.70
3548;DHT22;1788;49.400;11.092;2023-08-30T04:16:13;15.80;71.70
3548;DHT22;1788;49.400;11.092;2023-08-30T04:18:41;15.80;71.70
3548;DHT22;1788;49.400;11.092;2023-08-30T04:21:08;15.80;71.70
3548;DHT22;1788;49.400;11.092;2023-08-30T04:23:35;15.80;71.70
3548;DHT22;1788;49.400;11.092;2023-08-30T04:26:02;15.70;71.60
3548;DHT22;1788;49.400;11.092;2023-08-30T04:28:29;15.70;71.70
3548;DHT22;1788;49.400;11.092;2023-08-30T04:30:56;15.70;71.70
3548;DHT22;1788;49.400;11.092;2023-08-30T04:33:23;15.70;72.60
3548;DHT22;1788;49.400;11.092;2023-08-30T04:38:17;15.70;71.90
3548;DHT22;1788;49.400;11.092;2023-08-30T04:40:43;15.60;71.70
3548;DHT22;1788;49.400;11.092;2023-08-30T04:43:10;15.60;71.70
3548;DHT22;1788;49.400;11.092;2023-08-30T04:45:37;15.60;72.20
3548;DHT22;1788;49.400;11.092;2023-08-30T04:48:04;15.60;71.70
3548;DHT22;1788;49.400;11.092;2023-08-30T04:50:30;15.60;71.70
3548;DHT22;1788;49.400;11.092;2023-08-30T04:52:57;15.60;71.70
3548;DHT22;1788;49.400;11.092;2023-08-30T04:55:24;15.60;71.70
3548;DHT22;1788;49.400;11.092;2023-08-30T04:57:50;15.60;71.70
3548;DHT22;1788;49.400;11.092;2023-08-30T05:00:18;15.60;71.80
3548;DHT22;1788;49.400;11.092;2023-08-30T05:02:44;15.60;71.70
3548;DHT22;1788;49.400;11.092;2023-08-30T05:05:12;15.60;72.40
3548;DHT22;1788;49.400;11.092;2023-08-30T05:07:38;15.60;72.00
3548;DHT22;1788;49.400;11.092;2023-08-30T05:10:06;15.70;72.60
3548;DHT22;1788;49.400;11.092;2023-08-30T05:12:33;15.60;72.10
3548;DHT22;1788;49.400;11.092;2023-08-30T05:14:59;15.70;72.30
3548;DHT22;1788;49.400;11.092;2023-08-30T05:17:26;15.70;72.30
3548;DHT22;1788;49.400;11.092;2023-08-30T05:19:52;15.70;72.40
3548;DHT22;1788;49.400;11.092;2023-08-30T05:22:19;15.80;72.50
3548;DHT22;1788;49.400;11.092;2023-08-30T05:24:45;15.80;72.50
3548;DHT22;1788;49.400;11.092;2023-08-30T05:27:13;15.80;72.40
3548;DHT22;1788;49.400;11.092;2023-08-30T05:29:40;15.90;72.60
3548;DHT22;1788;49.400;11.092;2023-08-30T05:32:07;15.90;72.60
3548;DHT22;1788;49.400;11.092;2023-08-30T05:34:33;15.90;72.50
3548;DHT22;1788;49.400;11.092;2023-08-30T05:37:00;16.00;72.70
3548;DHT22;1788;49.400;11.092;2023-08-30T05:39:27;16.00;72.70
3548;DHT22;1788;49.400;11.092;2023-08-30T05:41:53;16.00;72.70
3548;DHT22;1788;49.400;11.092;2023-08-30T05:44:20;16.10;72.80
3548;DHT22;1788;49.400;11.092;2023-08-30T05:46:46;16.10;72.80
3548;DHT22;1788;49.400;11.092;2023-08-30T05:49:13;16.10;72.80
3548;DHT22;1788;49.400;11.092;2023-08-30T05:51:40;16.10;72.90
3548;DHT22;1788;49.400;11.092;2023-08-30T05:54:06;16.10;73.00
3548;DHT22;1788;49.400;11.092;2023-08-30T05:56:34;16.10;73.80
3548;DHT22;1788;49.400;11.092;2023-08-30T05:59:00;16.10;73.30
3548;DHT22;1788;49.400;11.092;2023-08-30T06:01:27;16.10;73.30
3548;DHT22;1788;49.400;11.092;2023-08-30T06:03:53;16.20;74.00
3548;DHT22;1788;49.400;11.092;2023-08-30T06:06:20;16.20;73.30
3548;DHT22;1788;49.400;11.092;2023-08-30T06:08:47;16.20;73.40
3548;DHT22;1788;49.400;11.092;2023-08-30T06:11:14;16.20;73.60
3548;DHT22;1788;49.400;11.092;2023-08-30T06:13:41;16.20;73.60
3548;DHT22;1788;49.400;11.092;2023-08-30T06:16:07;16.30;73.80
3548;DHT22;1788;49.400;11.092;2023-08-30T06:18:35;16.30;73.70
3548;DHT22;1788;49.400;11.092;2023-08-30T06:21:02;16.40;73.80
3548;DHT22;1788;49.400;11.092;2023-08-30T06:23:28;16.40;73.80
3548;DHT22;1788;49.400;11.092;2023-08-30T06:28:22;16.60;74.00
3548;DHT22;1788;49.400;11.092;2023-08-30T06:30:49;16.60;73.90
3548;DHT22;1788;49.400;11.092;2023-08-30T06:33:16;16.80;73.40
3548;DHT22;1788;49.400;11.092;2023-08-30T06:35:43;16.70;73.90
3548;DHT22;1788;49.400;11.092;2023-08-30T06:38:10;16.90;74.00
3548;DHT22;1788;49.400;11.092;2023-08-30T06:40:37;16.90;74.00
3548;DHT22;1788;49.400;11.092;2023-08-30T06:43:04;17.00;74.00
3548;DHT22;1788;49.400;11.092;2023-08-30T06:45:31;17.00;73.90
3548;DHT22;1788;49.400;11.092;2023-08-30T06:47:58;17.10;74.00
3548;DHT22;1788;49.400;11.092;2023-08-30T06:50:27;17.10;73.90
3548;DHT22;1788;49.400;11.092;2023-08-30T06:52:53;17.10;73.80
3548;DHT22;1788;49.400;11.092;2023-08-30T06:55:20;17.10;73.80
3548;DHT22;1788;49.400;11.092;2023-08-30T06:57:47;17.10;73.80
3548;DHT22;1788;49.400;11.092;2023-08-30T07:00:13;17.20;74.00
3548;DHT22;1788;49.400;11.092;2023-08-30T07:02:40;17.20;74.00
3548;DHT22;1788;49.400;11.092;2023-08-30T07:05:07;17.20;74.10
3548;DHT22;1788;49.400;11.092;2023-08-30T07:07:33;17.20;74.10
3548;DHT22;1788;49.400;11.092;2023-08-30T07:10:00;17.30;74.10
3548;DHT22;1788;49.400;11.092;2023-08-30T07:12:27;17.40;74.10
3548;DHT22;1788;49.400;11.092;2023-08-30T07:14:54;17.30;74.00
3548;DHT22;1788;49.400;11.092;2023-08-30T07:17:21;17.40;74.00
3548;DHT22;1788;49.400;11.092;2023-08-30T07:19:48;17.40;73.90
3548;DHT22;1788;49.400;11.092;2023-08-30T07:22:15;17.40;73.80
3548;DHT22;1788;49.400;11.092;2023-08-30T07:24:42;17.50;73.90
3548;DHT22;1788;49.400;11.092;2023-08-30T07:27:08;17.50;73.90
3548;DHT22;1788;49.400;11.092;2023-08-30T07:29:34;17.50;73.90
3548;DHT22;1788;49.400;11.092;2023-08-30T07:32:01;17.60;74.00
3548;DHT22;1788;49.400;11.092;2023-08-30T07:34:28;17.60;73.70
3548;DHT22;1788;49.400;11.092;2023-08-30T07:36:55;17.60;73.70
3548;DHT22;1788;49.400;11.092;2023-08-30T07:39:22;17.70;73.60
3548;DHT22;1788;49.400;11.092;2023-08-30T07:41:49;17.70;73.60
3548;DHT22;1788;49.400;11.092;2023-08-30T07:44:16;17.70;73.60
3548;DHT22;1788;49.400;11.092;2023-08-30T07:46:43;17.70;73.60
3548;DHT22;1788;49.400;11.092;2023-08-30T07:49:10;17.80;73.80
3548;DHT22;1788;49.400;11.092;2023-08-30T07:51:37;17.70;73.60
3548;DHT22;1788;49.400;11.092;2023-08-30T07:54:04;17.90;73.80
3548;DHT22;1788;49.400;11.092;2023-08-30T07:56:30;17.90;73.60
3548;DHT22;1788;49.400;11.092;2023-08-30T07:58:58;18.00;73.60
3548;DHT22;1788;49.400;11.092;2023-08-30T08:01:24;18.10;73.30
3548;DHT22;1788;49.400;11.092;2023-08-30T08:03:51;18.20;73.10
3548;DHT22;1788;49.400;11.092;2023-08-30T08:06:17;18.20;72.90
3548;DHT22;1788;49.400;11.092;2023-08-30T08:08:45;18.40;72.70
3548;DHT22;1788;49.400;11.092;2023-08-30T08:11:11;18.30;72.60
3548;DHT22;1788;49.400;11.092;2023-08-30T08:13:39;18.60;72.40
3548;DHT22;1788;49.400;11.092;2023-08-30T08:16:05;18.50;72.30
3548;DHT22;1788;49.400;11.092;2023-08-30T08:18:33;18.80;72.00
3548;DHT22;1788;49.400;11.092;2023-08-30T08:20:59;18.70;71.90
3548;DHT22;1788;49.400;11.092;2023-08-30T08:23:27;19.00;72.50
3548;DHT22;1788;49.400;11.092;2023-08-30T08:28:21;19.30;71.00
3548;DHT22;1788;49.400;11.092;2023-08-30T08:30:47;19.20;70.90
3548;DHT22;1788;49.400;11.092;2023-08-30T08:33:15;19.40;70.50
3548;DHT22;1788;49.400;11.092;2023-08-30T08:35:42;19.40;70.50
3548;DHT22;1788;49.400;11.092;2023-08-30T08:38:09;19.40;70.10
3548;DHT22;1788;49.400;11.092;2023-08-30T08:43:02;19.60;70.00
3548;DHT22;1788;49.400;11.092;2023-08-30T08:45:29;19.60;69.70
3548;DHT22;1788;49.400;11.092;2023-08-30T08:47:55;19.70;69.60
3548;DHT22;1788;49.400;11.092;2023-08-30T08:50:22;19.60;69.20
3548;DHT22;1788;49.400;11.092;2023-08-30T08:52:48;19.60;69.00
3548;DHT22;1788;49.400;11.092;2023-08-30T08:55:15;19.60;68.70
3548;DHT22;1788;49.400;11.092;2023-08-30T08:57:42;19.60;68.60
3548;DHT22;1788;49.400;11.092;2023-08-30T09:00:09;19.60;68.60
3548;DHT22;1788;49.400;11.092;2023-08-30T09:02:36;19.60;68.60
3548;DHT22;1788;49.400;11.092;2023-08-30T09:05:03;19.60;68.60
3548;DHT22;1788;49.400;11.092;2023-08-30T09:07:30;19.70;68.40
3548;DHT22;1788;49.400;11.092;2023-08-30T09:09:57;19.70;68.30
3548;DHT22;1788;49.400;11.092;2023-08-30T09:12:24;19.80;68.10
3548;DHT22;1788;49.400;11.092;2023-08-30T09:17:18;19.80;67.60
3548;DHT22;1788;49.400;11.092;2023-08-30T09:19:44;19.80;67.70
3548;DHT22;1788;49.400;11.092;2023-08-30T09:22:12;19.90;67.90
3548;DHT22;1788;49.400;11.092;2023-08-30T09:24:39;19.90;67.60
3548;DHT22;1788;49.400;11.092;2023-08-30T09:27:05;20.00;67.40
3548;DHT22;1788;49.400;11.092;2023-08-30T09:29:31;20.00;67.20
3548;DHT22;1788;49.400;11.092;2023-08-30T09:31:58;20.00;66.90
3548;DHT22;1788;49.400;11.092;2023-08-30T09:34:25;20.00;66.70
3548;DHT22;1788;49.400;11.092;2023-08-30T09:36:52;20.00;66.40
3548;DHT22;1788;49.400;11.092;2023-08-30T09:39:19;20.00;66.40
3548;DHT22;1788;49.400;11.092;2023-08-30T09:41:47;20.10;66.90
3548;DHT22;1788;49.400;11.092;2023-08-30T09:44:13;20.00;65.90
3548;DHT22;1788;49.400;11.092;2023-08-30T09:49:07;20.10;65.50
3548;DHT22;1788;49.400;11.092;2023-08-30T09:51:34;20.10;65.30
3548;DHT22;1788;49.400;11.092;2023-08-30T09:54:01;20.10;65.30
3548;DHT22;1788;49.400;11.092;2023-08-30T09:56:28;20.20;65.00
3548;DHT22;1788;49.400;11.092;2023-08-30T09:58:55;20.20;64.90
3548;DHT22;1788;49.400;11.092;2023-08-30T10:01:23;20.40;64.10
3548;DHT22;1788;49.400;11.092;2023-08-30T10:03:50;20.40;64.00
3548;DHT22;1788;49.400;11.092;2023-08-30T10:06:16;20.50;63.80
3548;DHT22;1788;49.400;11.092;2023-08-30T10:08:43;20.50;63.50
3548;DHT22;1788;49.400;11.092;2023-08-30T10:11:10;20.60;62.90
3548;DHT22;1788;49.400;11.092;2023-08-30T10:13:37;20.60;62.90
3548;DHT22;1788;49.400;11.092;2023-08-30T10:16:04;20.70;62.70
3548;DHT22;1788;49.400;11.092;2023-08-30T10:18:31;20.70;62.70
3548;DHT22;1788;49.400;11.092;2023-08-30T10:20:58;20.80;62.30
3548;DHT22;1788;49.400;11.092;2023-08-30T10:23:25;20.70;62.10
3548;DHT22;1788;49.400;11.092;2023-08-30T10:25:52;20.70;61.90
3548;DHT22;1788;49.400;11.092;2023-08-30T10:28:19;20.70;61.90
3548;DHT22;1788;49.400;11.092;2023-08-30T10:30:46;20.50;61.90
3548;DHT22;1788;49.400;11.092;2023-08-30T10:33:14;20.50;61.80
3548;DHT22;1788;49.400;11.092;2023-08-30T10:38:07;20.40;62.00
3548;DHT22;1788;49.400;11.092;2023-08-30T10:40:44;20.50;62.20
3548;DHT22;1788;49.400;11.092;2023-08-30T10:43:03;20.60;62.90
3548;DHT22;1788;49.400;11.092;2023-08-30T10:45:29;20.50;61.90
3548;DHT22;1788;49.400;11.092;2023-08-30T10:47:57;20.90;61.60
3548;DHT22;1788;49.400;11.092;2023-08-30T10:55:17;21.30;60.40
3548;DHT22;1788;49.400;11.092;2023-08-30T10:57:45;21.60;59.50
3548;DHT22;1788;49.400;11.092;2023-08-30T11:02:42;21.60;59.10
3548;DHT22;1788;49.400;11.092;2023-08-30T11:05:06;21.60;59.10
3548;DHT22;1788;49.400;11.092;2023-08-30T11:07:33;21.50;59.60
3548;DHT22;1788;49.400;11.092;2023-08-30T11:09:59;21.50;59.00
3548;DHT22;1788;49.400;11.092;2023-08-30T11:12:26;21.40;59.10
3548;DHT22;1788;49.400;11.092;2023-08-30T11:14:53;21.40;59.30
3548;DHT22;1788;49.400;11.092;2023-08-30T11:17:19;21.30;59.20
3548;DHT22;1788;49.400;11.092;2023-08-30T11:19:49;21.30;59.20
3548;DHT22;1788;49.400;11.092;2023-08-30T11:22:13;21.20;59.00
3548;DHT22;1788;49.400;11.092;2023-08-30T11:24:40;21.10;58.80
3548;DHT22;1788;49.400;11.092;2023-08-30T11:27:06;21.10;58.90
3548;DHT22;1788;49.400;11.092;2023-08-30T11:29:33;21.30;58.90
3548;DHT22;1788;49.400;11.092;2023-08-30T11:32:00;21.40;58.60
3548;DHT22;1788;49.400;11.092;2023-08-30T11:34:27;21.40;58.50
3548;DHT22;1788;49.400;11.092;2023-08-30T11:36:54;21.60;59.30
3548;DHT22;1788;49.400;11.092;2023-08-30T11:39:21;21.60;58.60
3548;DHT22;1788;49.400;11.092;2023-08-30T11:41:48;21.70;58.50
3548;DHT22;1788;49.400;11.092;2023-08-30T11:44:19;21.90;58.40
3548;DHT22;1788;49.400;11.092;2023-08-30T11:46:46;22.10;58.40
3548;DHT22;1788;49.400;11.092;2023-08-30T11:49:13;22.40;57.50
3548;DHT22;1788;49.400;11.092;2023-08-30T11:51:40;22.30;57.40
3548;DHT22;1788;49.400;11.092;2023-08-30T11:54:07;22.30;56.90
3548;DHT22;1788;49.400;11.092;2023-08-30T11:56:34;22.20;56.80
3548;DHT22;1788;49.400;11.092;2023-08-30T11:59:01;22.20;56.80
3548;DHT22;1788;49.400;11.092;2023-08-30T12:01:27;22.10;56.80
3548;DHT22;1788;49.400;11.092;2023-08-30T12:03:54;21.90;56.70
3548;DHT22;1788;49.400;11.092;2023-08-30T12:06:22;21.80;56.80
3548;DHT22;1788;49.400;11.092;2023-08-30T12:08:47;21.60;56.90
3548;DHT22;1788;49.400;11.092;2023-08-30T12:13:41;21.40;57.30
3548;DHT22;1788;49.400;11.092;2023-08-30T12:16:08;21.20;57.70
3548;DHT22;1788;49.400;11.092;2023-08-30T12:18:35;21.20;57.70
3548;DHT22;1788;49.400;11.092;2023-08-30T12:21:03;21.10;57.90
3548;DHT22;1788;49.400;11.092;2023-08-30T12:23:29;21.00;58.00
3548;DHT22;1788;49.400;11.092;2023-08-30T12:28:23;20.90;58.40
3548;DHT22;1788;49.400;11.092;2023-08-30T12:30:49;20.90;58.40
3548;DHT22;1788;49.400;11.092;2023-08-30T12:33:16;20.90;58.40
3548;DHT22;1788;49.400;11.092;2023-08-30T12:35:42;20.90;58.40
3548;DHT22;1788;49.400;11.092;2023-08-30T12:38:09;20.90;58.40
3548;DHT22;1788;49.400;11.092;2023-08-30T12:40:37;20.90;58.30
3548;DHT22;1788;49.400;11.092;2023-08-30T12:43:04;20.90;58.30
3548;DHT22;1788;49.400;11.092;2023-08-30T12:45:30;20.80;58.10
3548;DHT22;1788;49.400;11.092;2023-08-30T12:47:57;20.80;58.10
3548;DHT22;1788;49.400;11.092;2023-08-30T12:50:24;20.80;58.20
3548;DHT22;1788;49.400;11.092;2023-08-30T12:52:51;20.80;58.40
3548;DHT22;1788;49.400;11.092;2023-08-30T12:55:18;20.80;58.40
3548;DHT22;1788;49.400;11.092;2023-08-30T12:57:45;20.90;58.60
3548;DHT22;1788;49.400;11.092;2023-08-30T13:00:12;21.00;58.90
3548;DHT22;1788;49.400;11.092;2023-08-30T13:02:38;21.00;58.90
3548;DHT22;1788;49.400;11.092;2023-08-30T13:05:05;21.10;59.10
3548;DHT22;1788;49.400;11.092;2023-08-30T13:07:31;21.20;59.30
3548;DHT22;1788;49.400;11.092;2023-08-30T13:09:58;21.30;59.30
3548;DHT22;1788;49.400;11.092;2023-08-30T13:12:24;21.30;59.20
3548;DHT22;1788;49.400;11.092;2023-08-30T13:14:52;21.40;59.30
3548;DHT22;1788;49.400;11.092;2023-08-30T13:17:18;21.40;59.20
3548;DHT22;1788;49.400;11.092;2023-08-30T13:19:46;21.50;59.20
3548;DHT22;1788;49.400;11.092;2023-08-30T13:22:14;21.60;58.60
3548;DHT22;1788;49.400;11.092;2023-08-30T13:24:40;21.60;59.00
3548;DHT22;1788;49.400;11.092;2023-08-30T13:27:07;21.60;58.80
3548;DHT22;1788;49.400;11.092;2023-08-30T13:29:33;21.60;58.60
3548;DHT22;1788;49.400;11.092;2023-08-30T13:32:00;21.60;58.50
3548;DHT22;1788;49.400;11.092;2023-08-30T13:34:27;21.60;58.30
3548;DHT22;1788;49.400;11.092;2023-08-30T13:36:53;21.50;58.20
3548;DHT22;1788;49.400;11.092;2023-08-30T13:39:20;21.50;58.20
3548;DHT22;1788;49.400;11.092;2023-08-30T13:41:47;21.40;58.10
3548;DHT22;1788;49.400;11.092;2023-08-30T13:44:13;21.40;58.10
3548;DHT22;1788;49.400;11.092;2023-08-30T13:46:40;21.40;58.00
3548;DHT22;1788;49.400;11.092;2023-08-30T13:49:06;21.40;57.90
3548;DHT22;1788;49.400;11.092;2023-08-30T13:51:34;21.50;57.90
3548;DHT22;1788;49.400;11.092;2023-08-30T13:54:00;21.60;57.90
3548;DHT22;1788;49.400;11.092;2023-08-30T13:56:27;21.60;57.80
3548;DHT22;1788;49.400;11.092;2023-08-30T13:58:55;21.70;57.70
3548;DHT22;1788;49.400;11.092;2023-08-30T14:01:22;21.70;57.70
3548;DHT22;1788;49.400;11.092;2023-08-30T14:03:50;21.70;57.60
3548;DHT22;1788;49.400;11.092;2023-08-30T14:06:16;21.70;57.60
3548;DHT22;1788;49.400;11.092;2023-08-30T14:08:44;21.70;57.30
3548;DHT22;1788;49.400;11.092;2023-08-30T14:11:10;21.60;57.20
3548;DHT22;1788;49.400;11.092;2023-08-30T14:13:37;21.60;57.10
3548;DHT22;1788;49.400;11.092;2023-08-30T14:16:04;21.60;57.10
3548;DHT22;1788;49.400;11.092;2023-08-30T14:18:30;21.70;57.30
3548;DHT22;1788;49.400;11.092;2023-08-30T14:20:58;22.00;57.10
3548;DHT22;1788;49.400;11.092;2023-08-30T14:28:18;22.70;56.20
3548;DHT22;1788;49.400;11.092;2023-08-30T14:30:46;23.70;55.00
3548;DHT22;1788;49.400;11.092;2023-08-30T14:33:12;23.60;55.40
3548;DHT22;1788;49.400;11.092;2023-08-30T14:38:05;24.20;54.70
3548;DHT22;1788;49.400;11.092;2023-08-30T14:40:32;24.40;54.40
3548;DHT22;1788;49.400;11.092;2023-08-30T14:42:59;24.70;53.80
3548;DHT22;1788;49.400;11.092;2023-08-30T14:45:26;24.70;53.80
3548;DHT22;1788;49.400;11.092;2023-08-30T14:47:53;24.80;53.60
3548;DHT22;1788;49.400;11.092;2023-08-30T14:50:19;25.00;53.60
3548;DHT22;1788;49.400;11.092;2023-08-30T14:52:46;25.10;53.50
3548;DHT22;1788;49.400;11.092;2023-08-30T14:55:12;25.20;53.80
3548;DHT22;1788;49.400;11.092;2023-08-30T14:57:39;25.20;53.10
3548;DHT22;1788;49.400;11.092;2023-08-30T15:00:06;25.20;52.90
3548;DHT22;1788;49.400;11.092;2023-08-30T15:02:32;25.00;52.60
3548;DHT22;1788;49.400;11.092;2023-08-30T15:05:00;24.60;52.20
3548;DHT22;1788;49.400;11.092;2023-08-30T15:07:26;24.60;52.20
3548;DHT22;1788;49.400;11.092;2023-08-30T15:09:54;24.10;52.10
3548;DHT22;1788;49.400;11.092;2023-08-30T15:12:20;24.10;52.10
3548;DHT22;1788;49.400;11.092;2023-08-30T15:14:47;23.90;52.00
3548;DHT22;1788;49.400;11.092;2023-08-30T15:17:13;23.80;52.10
3548;DHT22;1788;49.400;11.092;2023-08-30T15:19:40;23.60;52.00
3548;DHT22;1788;49.400;11.092;2023-08-30T15:22:07;23.40;52.00
3548;DHT22;1788;49.400;11.092;2023-08-30T15:24:34;23.40;51.90
3548;DHT22;1788;49.400;11.092;2023-08-30T15:27:01;23.20;51.90
3548;DHT22;1788;49.400;11.092;2023-08-30T15:29:28;23.20;51.90
3548;DHT22;1788;49.400;11.092;2023-08-30T15:31:55;23.20;52.00
3548;DHT22;1788;49.400;11.092;2023-08-30T15:34:21;23.00;51.90
3548;DHT22;1788;49.400;11.092;2023-08-30T15:36:48;22.90;52.00
3548;DHT22;1788;49.400;11.092;2023-08-30T15:39:15;22.70;52.50
3548;DHT22;1788;49.400;11.092;2023-08-30T15:41:42;22.70;52.50
3548;DHT22;1788;49.400;11.092;2023-08-30T15:44:09;22.60;52.70
3548;DHT22;1788;49.400;11.092;2023-08-30T15:46:36;22.50;52.60
3548;DHT22;1788;49.400;11.092;2023-08-30T15:49:03;22.40;52.90
3548;DHT22;1788;49.400;11.092;2023-08-30T15:51:30;22.40;52.90
3548;DHT22;1788;49.400;11.092;2023-08-30T15:53:56;22.40;53.80
3548;DHT22;1788;49.400;11.092;2023-08-30T15:56:23;22.30;53.50
3548;DHT22;1788;49.400;11.092;2023-08-30T15:58:50;22.30;53.70
3548;DHT22;1788;49.400;11.092;2023-08-30T16:01:17;22.30;54.00
3548;DHT22;1788;49.400;11.092;2023-08-30T16:03:44;22.20;54.00
3548;DHT22;1788;49.400;11.092;2023-08-30T16:06:11;22.20;55.10
3548;DHT22;1788;49.400;11.092;2023-08-30T16:08:38;22.10;54.40
3548;DHT22;1788;49.400;11.092;2023-08-30T16:11:04;22.10;54.60
3548;DHT22;1788;49.400;11.092;2023-08-30T16:13:31;22.10;54.80
3548;DHT22;1788;49.400;11.092;2023-08-30T16:15:57;22.00;54.90
3548;DHT22;1788;49.400;11.092;2023-08-30T16:18:25;21.90;55.20
3548;DHT22;1788;49.400;11.092;2023-08-30T16:20:51;21.90;55.10
3548;DHT22;1788;49.400;11.092;2023-08-30T16:23:19;22.00;55.50
3548;DHT22;1788;49.400;11.092;2023-08-30T16:25:45;22.00;55.50
3548;DHT22;1788;49.400;11.092;2023-08-30T16:28:13;22.10;56.00
3548;DHT22;1788;49.400;11.092;2023-08-30T16:30:39;22.10;55.70